sensor_id;sensor_type;location;lat;lon;timestamp;P1;durP1;ratioP1;P2;durP2;ratioP2
8881;SDS011;4477;48.736;9.176;2022-07-01T00:00:39;6.43;;;2.27;;
8881;SDS011;4477;48.736;9.176;2022-07-01T00:03:08;2.10;;;1.90;;
8881;SDS011;4477;48.736;9.176;2022-07-01T00:05:35;2.33;;;2.13;;
8881;SDS011;4477;48.736;9.176;2022-07-01T00:08:02;3.10;;;1.97;;
8881;SDS011;4477;48.736;9.176;2022-07-01T00:10:29;2.13;;;1.90;;
8881;SDS011;4477;48.736;9.176;2022-07-01T00:12:56;2.33;;;1.77;;
8881;SDS011;4477;48.736;9.176;2022-07-01T00:15:23;5.23;;;1.93;;
8881;SDS011;4477;48.736;9.176;2022-07-01T00:17:50;2.50;;;1.40;;
8881;SDS011;4477;48.736;9.176;2022-07-01T00:20:18;3.40;;;1.80;;
8881;SDS011;4477;48.736;9.176;2022-07-01T00:22:45;1.90;;;1.40;;
8881;SDS011;4477;48.736;9.176;2022-07-01T00:25:12;3.53;;;1.63;;
8881;SDS011;4477;48.736;9.176;2022-07-01T00:27:39;2.80;;;1.53;;
8881;SDS011;4477;48.736;9.176;2022-07-01T00:30:07;2.23;;;1.43;;
8881;SDS011;4477;48.736;9.176;2022-07-01T00:32:35;5.93;;;1.60;;
8881;SDS011;4477;48.736;9.176;2022-07-01T00:35:02;2.43;;;1.40;;
8881;SDS011;4477;48.736;9.176;2022-07-01T00:37:31;4.03;;;1.53;;
8881;SDS011;4477;48.736;9.176;2022-07-01T00:39:57;1.67;;;1.20;;
8881;SDS011;4477;48.736;9.176;2022-07-01T00:42:24;4.10;;;1.40;;
8881;SDS011;4477;48.736;9.176;2022-07-01T00:44:51;2.13;;;1.30;;
8881;SDS011;4477;48.736;9.176;2022-07-01T00:47:18;4.33;;;1.60;;
8881;SDS011;4477;48.736;9.176;2022-07-01T00:49:45;2.93;;;1.40;;
8881;SDS011;4477;48.736;9.176;2022-07-01T00:52:12;2.60;;;1.40;;
8881;SDS011;4477;48.736;9.176;2022-07-01T00:54:40;2.10;;;1.43;;
8881;SDS011;4477;48.736;9.176;2022-07-01T00:57:10;1.40;;;1.30;;
8881;SDS011;4477;48.736;9.176;2022-07-01T00:59:38;3.13;;;1.23;;
8881;SDS011;4477;48.736;9.176;2022-07-01T01:02:06;2.17;;;1.30;;
8881;SDS011;4477;48.736;9.176;2022-07-01T01:04:34;3.00;;;1.30;;
8881;SDS011;4477;48.736;9.176;2022-07-01T01:07:02;1.60;;;1.13;;
8881;SDS011;4477;48.736;9.176;2022-07-01T01:09:29;1.43;;;1.20;;
8881;SDS011;4477;48.736;9.176;2022-07-01T01:11:59;1.60;;;1.40;;
8881;SDS011;4477;48.736;9.176;2022-07-01T01:14:27;3.37;;;1.50;;
8881;SDS011;4477;48.736;9.176;2022-07-01T01:16:54;3.70;;;1.53;;
8881;SDS011;4477;48.736;9.176;2022-07-01T01:19:21;2.37;;;1.40;;
8881;SDS011;4477;48.736;9.176;2022-07-01T01:21:49;3.07;;;1.30;;
8881;SDS011;4477;48.736;9.176;2022-07-01T01:24:16;2.80;;;1.20;;
8881;SDS011;4477;48.736;9.176;2022-07-01T01:26:43;2.33;;;1.33;;
8881;SDS011;4477;48.736;9.176;2022-07-01T01:29:10;2.90;;;1.20;;
8881;SDS011;4477;48.736;9.176;2022-07-01T01:31:36;2.57;;;1.47;;
8881;SDS011;4477;48.736;9.176;2022-07-01T01:34:03;2.20;;;1.20;;
8881;SDS011;4477;48.736;9.176;2022-07-01T01:36:30;1.47;;;1.37;;
8881;SDS011;4477;48.736;9.176;2022-07-01T01:38:58;2.30;;;1.53;;
8881;SDS011;4477;48.736;9.176;2022-07-01T01:41:29;2.40;;;1.30;;
8881;SDS011;4477;48.736;9.176;2022-07-01T01:43:56;2.53;;;1.30;;
8881;SDS011;4477;48.736;9.176;2022-07-01T01:46:23;2.00;;;1.33;;
8881;SDS011;4477;48.736;9.176;2022-07-01T01:48:50;3.63;;;1.30;;
8881;SDS011;4477;48.736;9.176;2022-07-01T01:51:17;3.77;;;1.60;;
8881;SDS011;4477;48.736;9.176;2022-07-01T01:53:44;2.03;;;1.50;;
8881;SDS011;4477;48.736;9.176;2022-07-01T01:56:13;1.80;;;1.47;;
8881;SDS011;4477;48.736;9.176;2022-07-01T01:58:40;2.40;;;1.53;;
8881;SDS011;4477;48.736;9.176;2022-07-01T02:01:09;3.00;;;1.70;;
8881;SDS011;4477;48.736;9.176;2022-07-01T02:03:36;2.67;;;1.50;;
8881;SDS011;4477;48.736;9.176;2022-07-01T02:06:03;1.57;;;1.23;;
8881;SDS011;4477;48.736;9.176;2022-07-01T02:08:31;2.03;;;1.67;;
8881;SDS011;4477;48.736;9.176;2022-07-01T02:10:58;2.63;;;2.23;;
8881;SDS011;4477;48.736;9.176;2022-07-01T02:13:26;3.30;;;2.10;;
8881;SDS011;4477;48.736;9.176;2022-07-01T02:15:53;2.73;;;2.47;;
8881;SDS011;4477;48.736;9.176;2022-07-01T02:18:23;3.17;;;2.73;;
8881;SDS011;4477;48.736;9.176;2022-07-01T02:20:50;3.70;;;3.00;;
8881;SDS011;4477;48.736;9.176;2022-07-01T02:23:17;2.97;;;2.60;;
8881;SDS011;4477;48.736;9.176;2022-07-01T02:25:45;3.63;;;2.50;;
8881;SDS011;4477;48.736;9.176;2022-07-01T02:28:12;4.07;;;2.17;;
8881;SDS011;4477;48.736;9.176;2022-07-01T02:30:40;3.20;;;2.27;;
8881;SDS011;4477;48.736;9.176;2022-07-01T02:33:07;2.50;;;2.10;;
8881;SDS011;4477;48.736;9.176;2022-07-01T02:35:36;3.90;;;2.10;;
8881;SDS011;4477;48.736;9.176;2022-07-01T02:38:05;2.67;;;2.27;;
8881;SDS011;4477;48.736;9.176;2022-07-01T02:40:33;4.20;;;2.17;;
8881;SDS011;4477;48.736;9.176;2022-07-01T02:43:02;3.27;;;2.53;;
8881;SDS011;4477;48.736;9.176;2022-07-01T02:45:29;3.07;;;2.83;;
8881;SDS011;4477;48.736;9.176;2022-07-01T02:47:58;6.57;;;2.87;;
8881;SDS011;4477;48.736;9.176;2022-07-01T02:50:26;4.80;;;3.03;;
8881;SDS011;4477;48.736;9.176;2022-07-01T02:52:54;5.40;;;3.10;;
8881;SDS011;4477;48.736;9.176;2022-07-01T02:55:21;4.30;;;3.53;;
8881;SDS011;4477;48.736;9.176;2022-07-01T02:57:48;3.77;;;3.10;;
8881;SDS011;4477;48.736;9.176;2022-07-01T03:00:17;5.60;;;3.60;;
8881;SDS011;4477;48.736;9.176;2022-07-01T03:02:45;5.27;;;3.60;;
8881;SDS011;4477;48.736;9.176;2022-07-01T03:05:14;4.10;;;3.33;;
8881;SDS011;4477;48.736;9.176;2022-07-01T03:07:42;5.67;;;3.53;;
8881;SDS011;4477;48.736;9.176;2022-07-01T03:10:09;5.80;;;3.93;;
8881;SDS011;4477;48.736;9.176;2022-07-01T03:12:36;6.50;;;4.47;;
8881;SDS011;4477;48.736;9.176;2022-07-01T03:15:06;5.57;;;4.47;;
8881;SDS011;4477;48.736;9.176;2022-07-01T03:17:35;7.47;;;4.87;;
8881;SDS011;4477;48.736;9.176;2022-07-01T03:20:04;6.23;;;3.87;;
8881;SDS011;4477;48.736;9.176;2022-07-01T03:22:33;5.00;;;3.70;;
8881;SDS011;4477;48.736;9.176;2022-07-01T03:25:00;4.87;;;3.87;;
8881;SDS011;4477;48.736;9.176;2022-07-01T03:27:28;5.00;;;3.73;;
8881;SDS011;4477;48.736;9.176;2022-07-01T03:29:55;3.60;;;3.30;;
8881;SDS011;4477;48.736;9.176;2022-07-01T03:32:23;4.67;;;3.50;;
8881;SDS011;4477;48.736;9.176;2022-07-01T03:34:50;3.57;;;2.80;;
8881;SDS011;4477;48.736;9.176;2022-07-01T03:37:18;3.83;;;3.20;;
8881;SDS011;4477;48.736;9.176;2022-07-01T03:39:48;3.50;;;3.20;;
8881;SDS011;4477;48.736;9.176;2022-07-01T03:42:15;3.60;;;2.90;;
8881;SDS011;4477;48.736;9.176;2022-07-01T03:44:43;4.60;;;3.40;;
8881;SDS011;4477;48.736;9.176;2022-07-01T03:47:10;5.13;;;3.13;;
8881;SDS011;4477;48.736;9.176;2022-07-01T03:49:37;4.37;;;2.97;;
8881;SDS011;4477;48.736;9.176;2022-07-01T03:52:05;3.40;;;2.60;;
8881;SDS011;4477;48.736;9.176;2022-07-01T03:54:32;3.80;;;2.83;;
8881;SDS011;4477;48.736;9.176;2022-07-01T03:57:04;2.63;;;2.30;;
8881;SDS011;4477;48.736;9.176;2022-07-01T03:59:32;7.60;;;2.20;;
8881;SDS011;4477;48.736;9.176;2022-07-01T04:02:01;3.00;;;2.20;;
8881;SDS011;4477;48.736;9.176;2022-07-01T04:04:28;3.60;;;2.50;;
8881;SDS011;4477;48.736;9.176;2022-07-01T04:06:57;5.80;;;2.80;;
8881;SDS011;4477;48.736;9.176;2022-07-01T04:09:25;2.47;;;2.17;;
8881;SDS011;4477;48.736;9.176;2022-07-01T04:11:52;3.47;;;2.47;;
8881;SDS011;4477;48.736;9.176;2022-07-01T04:14:21;5.30;;;2.47;;
8881;SDS011;4477;48.736;9.176;2022-07-01T04:16:49;2.63;;;2.13;;
8881;SDS011;4477;48.736;9.176;2022-07-01T04:19:16;2.93;;;1.80;;
8881;SDS011;4477;48.736;9.176;2022-07-01T04:21:44;4.23;;;2.00;;
8881;SDS011;4477;48.736;9.176;2022-07-01T04:24:28;3.27;;;1.80;;
8881;SDS011;4477;48.736;9.176;2022-07-01T04:26:57;3.33;;;2.17;;
8881;SDS011;4477;48.736;9.176;2022-07-01T04:29:26;6.67;;;2.10;;
8881;SDS011;4477;48.736;9.176;2022-07-01T04:31:54;3.73;;;2.00;;
8881;SDS011;4477;48.736;9.176;2022-07-01T04:34:21;3.90;;;1.80;;
8881;SDS011;4477;48.736;9.176;2022-07-01T04:36:48;2.77;;;2.07;;
8881;SDS011;4477;48.736;9.176;2022-07-01T04:39:15;3.37;;;2.07;;
8881;SDS011;4477;48.736;9.176;2022-07-01T04:41:42;3.03;;;2.10;;
8881;SDS011;4477;48.736;9.176;2022-07-01T04:44:29;5.07;;;2.23;;
8881;SDS011;4477;48.736;9.176;2022-07-01T04:46:57;4.43;;;2.70;;
8881;SDS011;4477;48.736;9.176;2022-07-01T04:49:24;2.63;;;2.10;;
8881;SDS011;4477;48.736;9.176;2022-07-01T04:51:51;2.63;;;2.03;;
8881;SDS011;4477;48.736;9.176;2022-07-01T04:54:19;2.47;;;1.93;;
8881;SDS011;4477;48.736;9.176;2022-07-01T04:56:46;3.37;;;1.90;;
8881;SDS011;4477;48.736;9.176;2022-07-01T04:59:13;2.63;;;2.00;;
8881;SDS011;4477;48.736;9.176;2022-07-01T05:01:42;5.90;;;2.27;;
8881;SDS011;4477;48.736;9.176;2022-07-01T05:04:10;2.10;;;1.70;;
8881;SDS011;4477;48.736;9.176;2022-07-01T05:06:38;2.10;;;1.90;;
8881;SDS011;4477;48.736;9.176;2022-07-01T05:09:05;2.80;;;1.80;;
8881;SDS011;4477;48.736;9.176;2022-07-01T05:11:32;2.27;;;2.07;;
8881;SDS011;4477;48.736;9.176;2022-07-01T05:13:59;2.73;;;1.77;;
8881;SDS011;4477;48.736;9.176;2022-07-01T05:16:26;4.83;;;1.90;;
8881;SDS011;4477;48.736;9.176;2022-07-01T05:18:55;2.43;;;1.90;;
8881;SDS011;4477;48.736;9.176;2022-07-01T05:21:39;5.10;;;2.13;;
8881;SDS011;4477;48.736;9.176;2022-07-01T05:24:25;2.37;;;1.87;;
8881;SDS011;4477;48.736;9.176;2022-07-01T05:26:57;3.33;;;1.80;;
8881;SDS011;4477;48.736;9.176;2022-07-01T05:29:25;2.27;;;1.83;;
8881;SDS011;4477;48.736;9.176;2022-07-01T05:31:52;2.90;;;2.13;;
8881;SDS011;4477;48.736;9.176;2022-07-01T05:34:20;2.43;;;1.90;;
8881;SDS011;4477;48.736;9.176;2022-07-01T05:36:48;2.43;;;1.90;;
8881;SDS011;4477;48.736;9.176;2022-07-01T05:39:15;3.50;;;1.90;;
8881;SDS011;4477;48.736;9.176;2022-07-01T05:41:42;3.17;;;2.10;;
8881;SDS011;4477;48.736;9.176;2022-07-01T05:44:08;4.30;;;2.10;;
8881;SDS011;4477;48.736;9.176;2022-07-01T05:46:35;2.97;;;1.90;;
8881;SDS011;4477;48.736;9.176;2022-07-01T05:49:02;3.67;;;2.37;;
8881;SDS011;4477;48.736;9.176;2022-07-01T05:51:30;2.40;;;2.20;;
8881;SDS011;4477;48.736;9.176;2022-07-01T05:53:58;5.37;;;2.40;;
8881;SDS011;4477;48.736;9.176;2022-07-01T05:56:24;3.57;;;2.47;;
8881;SDS011;4477;48.736;9.176;2022-07-01T05:58:52;3.40;;;2.80;;
8881;SDS011;4477;48.736;9.176;2022-07-01T06:01:19;3.23;;;2.63;;
8881;SDS011;4477;48.736;9.176;2022-07-01T06:03:48;4.10;;;3.30;;
8881;SDS011;4477;48.736;9.176;2022-07-01T06:06:15;5.17;;;3.30;;
8881;SDS011;4477;48.736;9.176;2022-07-01T06:08:44;5.50;;;3.30;;
8881;SDS011;4477;48.736;9.176;2022-07-01T06:11:11;4.37;;;3.80;;
8881;SDS011;4477;48.736;9.176;2022-07-01T06:13:39;5.10;;;4.60;;
8881;SDS011;4477;48.736;9.176;2022-07-01T06:16:05;5.20;;;4.43;;
8881;SDS011;4477;48.736;9.176;2022-07-01T06:18:32;4.87;;;4.37;;
8881;SDS011;4477;48.736;9.176;2022-07-01T06:20:59;6.57;;;4.80;;
8881;SDS011;4477;48.736;9.176;2022-07-01T06:23:26;6.20;;;4.90;;
8881;SDS011;4477;48.736;9.176;2022-07-01T06:25:55;6.87;;;4.27;;
8881;SDS011;4477;48.736;9.176;2022-07-01T06:28:22;5.47;;;4.27;;
8881;SDS011;4477;48.736;9.176;2022-07-01T06:30:54;6.93;;;4.43;;
8881;SDS011;4477;48.736;9.176;2022-07-01T06:33:22;5.90;;;4.67;;
8881;SDS011;4477;48.736;9.176;2022-07-01T06:35:49;7.27;;;4.70;;
8881;SDS011;4477;48.736;9.176;2022-07-01T06:38:16;6.97;;;4.43;;
8881;SDS011;4477;48.736;9.176;2022-07-01T06:40:43;5.53;;;4.00;;
8881;SDS011;4477;48.736;9.176;2022-07-01T06:43:31;4.10;;;3.70;;
8881;SDS011;4477;48.736;9.176;2022-07-01T06:45:59;4.20;;;3.43;;
8881;SDS011;4477;48.736;9.176;2022-07-01T06:48:26;3.93;;;3.53;;
8881;SDS011;4477;48.736;9.176;2022-07-01T06:50:53;4.10;;;3.50;;
8881;SDS011;4477;48.736;9.176;2022-07-01T06:53:20;4.30;;;3.77;;
8881;SDS011;4477;48.736;9.176;2022-07-01T06:55:47;4.63;;;4.10;;
8881;SDS011;4477;48.736;9.176;2022-07-01T06:58:14;3.30;;;2.90;;
8881;SDS011;4477;48.736;9.176;2022-07-01T07:00:42;4.03;;;3.63;;
8881;SDS011;4477;48.736;9.176;2022-07-01T07:03:09;6.30;;;5.33;;
8881;SDS011;4477;48.736;9.176;2022-07-01T07:05:36;4.07;;;3.57;;
8881;SDS011;4477;48.736;9.176;2022-07-01T07:08:03;4.13;;;2.80;;
8881;SDS011;4477;48.736;9.176;2022-07-01T07:10:30;2.77;;;2.40;;
8881;SDS011;4477;48.736;9.176;2022-07-01T07:12:57;2.70;;;2.10;;
8881;SDS011;4477;48.736;9.176;2022-07-01T07:15:24;2.90;;;2.00;;
8881;SDS011;4477;48.736;9.176;2022-07-01T07:17:52;1.97;;;1.70;;
8881;SDS011;4477;48.736;9.176;2022-07-01T07:20:23;3.70;;;1.80;;
8881;SDS011;4477;48.736;9.176;2022-07-01T07:22:50;1.90;;;1.70;;
8881;SDS011;4477;48.736;9.176;2022-07-01T07:25:17;2.43;;;1.90;;
8881;SDS011;4477;48.736;9.176;2022-07-01T07:27:44;2.63;;;1.80;;
8881;SDS011;4477;48.736;9.176;2022-07-01T07:30:11;2.27;;;2.07;;
8881;SDS011;4477;48.736;9.176;2022-07-01T07:32:39;4.30;;;2.30;;
8881;SDS011;4477;48.736;9.176;2022-07-01T07:35:07;2.67;;;2.20;;
8881;SDS011;4477;48.736;9.176;2022-07-01T07:37:35;2.80;;;2.10;;
8881;SDS011;4477;48.736;9.176;2022-07-01T07:40:03;3.53;;;2.37;;
8881;SDS011;4477;48.736;9.176;2022-07-01T07:42:33;4.27;;;2.00;;
8881;SDS011;4477;48.736;9.176;2022-07-01T07:45:00;2.40;;;2.00;;
8881;SDS011;4477;48.736;9.176;2022-07-01T07:47:28;2.23;;;1.70;;
8881;SDS011;4477;48.736;9.176;2022-07-01T07:49:55;3.37;;;1.90;;
8881;SDS011;4477;48.736;9.176;2022-07-01T07:52:23;1.70;;;1.60;;
8881;SDS011;4477;48.736;9.176;2022-07-01T07:54:50;2.03;;;1.83;;
8881;SDS011;4477;48.736;9.176;2022-07-01T07:57:17;2.80;;;1.77;;
8881;SDS011;4477;48.736;9.176;2022-07-01T07:59:44;5.13;;;2.10;;
8881;SDS011;4477;48.736;9.176;2022-07-01T08:02:11;2.20;;;1.90;;
8881;SDS011;4477;48.736;9.176;2022-07-01T08:04:38;1.90;;;1.67;;
8881;SDS011;4477;48.736;9.176;2022-07-01T08:07:05;2.33;;;1.67;;
8881;SDS011;4477;48.736;9.176;2022-07-01T08:09:34;2.33;;;1.80;;
8881;SDS011;4477;48.736;9.176;2022-07-01T08:12:00;2.60;;;1.60;;
8881;SDS011;4477;48.736;9.176;2022-07-01T08:14:27;3.33;;;2.10;;
8881;SDS011;4477;48.736;9.176;2022-07-01T08:16:54;2.80;;;2.10;;
8881;SDS011;4477;48.736;9.176;2022-07-01T08:19:22;2.13;;;1.80;;
8881;SDS011;4477;48.736;9.176;2022-07-01T08:21:48;2.87;;;1.77;;
8881;SDS011;4477;48.736;9.176;2022-07-01T08:24:15;2.53;;;2.10;;
8881;SDS011;4477;48.736;9.176;2022-07-01T08:26:44;3.80;;;1.97;;
8881;SDS011;4477;48.736;9.176;2022-07-01T08:29:10;3.07;;;1.90;;
8881;SDS011;4477;48.736;9.176;2022-07-01T08:31:37;1.80;;;1.30;;
8881;SDS011;4477;48.736;9.176;2022-07-01T08:34:04;1.57;;;1.47;;
8881;SDS011;4477;48.736;9.176;2022-07-01T08:36:31;2.63;;;1.80;;
8881;SDS011;4477;48.736;9.176;2022-07-01T08:38:59;1.93;;;1.73;;
8881;SDS011;4477;48.736;9.176;2022-07-01T08:41:26;3.70;;;1.77;;
8881;SDS011;4477;48.736;9.176;2022-07-01T08:43:54;2.40;;;2.07;;
8881;SDS011;4477;48.736;9.176;2022-07-01T08:46:21;3.17;;;2.57;;
8881;SDS011;4477;48.736;9.176;2022-07-01T08:48:48;3.10;;;2.80;;
8881;SDS011;4477;48.736;9.176;2022-07-01T08:51:15;2.30;;;2.10;;
8881;SDS011;4477;48.736;9.176;2022-07-01T08:53:42;3.23;;;2.00;;
8881;SDS011;4477;48.736;9.176;2022-07-01T08:56:09;2.47;;;2.17;;
8881;SDS011;4477;48.736;9.176;2022-07-01T08:58:55;2.40;;;1.90;;
8881;SDS011;4477;48.736;9.176;2022-07-01T09:01:23;2.57;;;1.97;;
8881;SDS011;4477;48.736;9.176;2022-07-01T09:03:51;2.23;;;2.00;;
8881;SDS011;4477;48.736;9.176;2022-07-01T09:06:20;3.70;;;2.17;;
8881;SDS011;4477;48.736;9.176;2022-07-01T09:08:48;4.20;;;2.13;;
8881;SDS011;4477;48.736;9.176;2022-07-01T09:11:16;2.50;;;2.10;;
8881;SDS011;4477;48.736;9.176;2022-07-01T09:13:44;3.87;;;1.70;;
8881;SDS011;4477;48.736;9.176;2022-07-01T09:16:14;3.90;;;2.40;;
8881;SDS011;4477;48.736;9.176;2022-07-01T09:21:27;2.30;;;2.10;;
8881;SDS011;4477;48.736;9.176;2022-07-01T09:23:55;2.70;;;2.30;;
8881;SDS011;4477;48.736;9.176;2022-07-01T09:26:22;3.53;;;2.37;;
8881;SDS011;4477;48.736;9.176;2022-07-01T09:28:52;2.10;;;1.90;;
8881;SDS011;4477;48.736;9.176;2022-07-01T09:31:21;2.93;;;2.00;;
8881;SDS011;4477;48.736;9.176;2022-07-01T09:34:02;4.23;;;2.20;;
8881;SDS011;4477;48.736;9.176;2022-07-01T09:36:30;2.47;;;2.17;;
8881;SDS011;4477;48.736;9.176;2022-07-01T09:38:57;4.23;;;2.60;;
8881;SDS011;4477;48.736;9.176;2022-07-01T09:41:34;2.77;;;2.57;;
8881;SDS011;4477;48.736;9.176;2022-07-01T09:44:03;2.77;;;2.57;;
8881;SDS011;4477;48.736;9.176;2022-07-01T09:46:31;3.93;;;2.73;;
8881;SDS011;4477;48.736;9.176;2022-07-01T09:48:58;2.60;;;2.40;;
8881;SDS011;4477;48.736;9.176;2022-07-01T09:51:25;2.47;;;2.10;;
8881;SDS011;4477;48.736;9.176;2022-07-01T09:53:53;4.63;;;2.87;;
8881;SDS011;4477;48.736;9.176;2022-07-01T09:56:21;3.83;;;2.47;;
8881;SDS011;4477;48.736;9.176;2022-07-01T09:58:48;2.83;;;2.33;;
8881;SDS011;4477;48.736;9.176;2022-07-01T10:01:16;3.33;;;2.50;;
8881;SDS011;4477;48.736;9.176;2022-07-01T10:03:44;3.17;;;2.33;;
8881;SDS011;4477;48.736;9.176;2022-07-01T10:06:19;2.63;;;2.17;;
8881;SDS011;4477;48.736;9.176;2022-07-01T10:08:59;2.70;;;2.50;;
8881;SDS011;4477;48.736;9.176;2022-07-01T10:11:51;2.17;;;1.80;;
8881;SDS011;4477;48.736;9.176;2022-07-01T10:14:28;1.90;;;1.80;;
8881;SDS011;4477;48.736;9.176;2022-07-01T10:16:57;2.13;;;1.80;;
8881;SDS011;4477;48.736;9.176;2022-07-01T10:19:26;2.30;;;2.10;;
8881;SDS011;4477;48.736;9.176;2022-07-01T10:21:54;2.20;;;1.83;;
8881;SDS011;4477;48.736;9.176;2022-07-01T10:24:24;2.57;;;1.67;;
8881;SDS011;4477;48.736;9.176;2022-07-01T10:26:52;1.60;;;1.50;;
8881;SDS011;4477;48.736;9.176;2022-07-01T10:29:32;2.40;;;1.90;;
8881;SDS011;4477;48.736;9.176;2022-07-01T10:32:07;1.77;;;1.50;;
8881;SDS011;4477;48.736;9.176;2022-07-01T10:34:38;1.70;;;1.20;;
8881;SDS011;4477;48.736;9.176;2022-07-01T10:37:07;2.10;;;1.30;;
8881;SDS011;4477;48.736;9.176;2022-07-01T10:39:54;1.60;;;1.20;;
8881;SDS011;4477;48.736;9.176;2022-07-01T10:42:27;2.17;;;1.40;;
8881;SDS011;4477;48.736;9.176;2022-07-01T10:45:05;1.93;;;1.03;;
8881;SDS011;4477;48.736;9.176;2022-07-01T10:47:35;1.57;;;1.07;;
8881;SDS011;4477;48.736;9.176;2022-07-01T10:50:11;1.77;;;1.10;;
8881;SDS011;4477;48.736;9.176;2022-07-01T10:55:37;1.50;;;0.97;;
8881;SDS011;4477;48.736;9.176;2022-07-01T10:58:05;0.63;;;0.60;;
8881;SDS011;4477;48.736;9.176;2022-07-01T11:00:33;1.10;;;0.73;;
8881;SDS011;4477;48.736;9.176;2022-07-01T11:03:06;1.80;;;1.00;;
8881;SDS011;4477;48.736;9.176;2022-07-01T11:05:42;0.80;;;0.80;;
8881;SDS011;4477;48.736;9.176;2022-07-01T11:08:12;1.63;;;0.90;;
8881;SDS011;4477;48.736;9.176;2022-07-01T11:10:42;0.83;;;0.83;;
8881;SDS011;4477;48.736;9.176;2022-07-01T11:13:14;1.60;;;0.90;;
8881;SDS011;4477;48.736;9.176;2022-07-01T11:15:44;1.93;;;0.83;;
8881;SDS011;4477;48.736;9.176;2022-07-01T11:18:12;1.00;;;0.97;;
8881;SDS011;4477;48.736;9.176;2022-07-01T11:20:40;1.40;;;0.77;;
8881;SDS011;4477;48.736;9.176;2022-07-01T11:23:09;1.40;;;0.97;;
8881;SDS011;4477;48.736;9.176;2022-07-01T11:25:36;2.30;;;0.87;;
8881;SDS011;4477;48.736;9.176;2022-07-01T11:28:03;0.70;;;0.60;;
8881;SDS011;4477;48.736;9.176;2022-07-01T11:30:30;1.40;;;0.70;;
8881;SDS011;4477;48.736;9.176;2022-07-01T11:32:57;2.45;;;1.15;;
8881;SDS011;4477;48.736;9.176;2022-07-01T11:35:25;1.67;;;1.00;;
8881;SDS011;4477;48.736;9.176;2022-07-01T11:38:12;1.93;;;1.23;;
8881;SDS011;4477;48.736;9.176;2022-07-01T11:40:59;1.93;;;1.00;;
8881;SDS011;4477;48.736;9.176;2022-07-01T11:43:28;1.53;;;0.90;;
8881;SDS011;4477;48.736;9.176;2022-07-01T11:45:58;1.50;;;1.07;;
8881;SDS011;4477;48.736;9.176;2022-07-01T11:48:34;1.60;;;1.07;;
8881;SDS011;4477;48.736;9.176;2022-07-01T11:51:06;1.43;;;1.00;;
8881;SDS011;4477;48.736;9.176;2022-07-01T11:53:36;2.63;;;1.20;;
8881;SDS011;4477;48.736;9.176;2022-07-01T11:56:03;1.30;;;1.00;;
8881;SDS011;4477;48.736;9.176;2022-07-01T11:58:40;1.40;;;1.10;;
8881;SDS011;4477;48.736;9.176;2022-07-01T12:01:08;1.47;;;1.33;;
8881;SDS011;4477;48.736;9.176;2022-07-01T12:03:36;2.40;;;1.07;;
8881;SDS011;4477;48.736;9.176;2022-07-01T12:06:03;1.50;;;1.00;;
8881;SDS011;4477;48.736;9.176;2022-07-01T12:08:40;2.37;;;1.00;;
8881;SDS011;4477;48.736;9.176;2022-07-01T12:11:08;1.00;;;0.83;;
8881;SDS011;4477;48.736;9.176;2022-07-01T12:13:36;1.97;;;1.00;;
8881;SDS011;4477;48.736;9.176;2022-07-01T12:16:07;4.05;;;1.13;;
8881;SDS011;4477;48.736;9.176;2022-07-01T12:18:38;1.60;;;0.87;;
8881;SDS011;4477;48.736;9.176;2022-07-01T12:21:05;1.98;;;0.95;;
8881;SDS011;4477;48.736;9.176;2022-07-01T12:23:32;2.38;;;1.13;;
8881;SDS011;4477;48.736;9.176;2022-07-01T12:26:04;2.65;;;1.00;;
8881;SDS011;4477;48.736;9.176;2022-07-01T12:28:33;1.65;;;0.90;;
8881;SDS011;4477;48.736;9.176;2022-07-01T12:31:05;3.58;;;1.17;;
8881;SDS011;4477;48.736;9.176;2022-07-01T12:33:34;2.00;;;1.10;;
8881;SDS011;4477;48.736;9.176;2022-07-01T12:36:02;1.20;;;1.00;;
8881;SDS011;4477;48.736;9.176;2022-07-01T12:38:31;1.10;;;0.98;;
8881;SDS011;4477;48.736;9.176;2022-07-01T12:40:58;1.67;;;0.98;;
8881;SDS011;4477;48.736;9.176;2022-07-01T12:43:27;1.17;;;1.07;;
8881;SDS011;4477;48.736;9.176;2022-07-01T12:45:57;1.30;;;1.00;;
8881;SDS011;4477;48.736;9.176;2022-07-01T12:48:25;1.80;;;1.30;;
8881;SDS011;4477;48.736;9.176;2022-07-01T12:50:52;2.90;;;1.30;;
8881;SDS011;4477;48.736;9.176;2022-07-01T12:53:21;1.03;;;0.97;;
8881;SDS011;4477;48.736;9.176;2022-07-01T12:55:49;2.27;;;1.50;;
8881;SDS011;4477;48.736;9.176;2022-07-01T12:58:18;1.33;;;1.20;;
8881;SDS011;4477;48.736;9.176;2022-07-01T13:00:48;1.40;;;1.30;;
8881;SDS011;4477;48.736;9.176;2022-07-01T13:03:20;2.73;;;1.53;;
8881;SDS011;4477;48.736;9.176;2022-07-01T13:05:49;1.43;;;1.10;;
8881;SDS011;4477;48.736;9.176;2022-07-01T13:08:16;1.93;;;1.57;;
8881;SDS011;4477;48.736;9.176;2022-07-01T13:10:44;2.73;;;1.57;;
8881;SDS011;4477;48.736;9.176;2022-07-01T13:13:11;1.23;;;1.10;;
8881;SDS011;4477;48.736;9.176;2022-07-01T13:15:39;2.73;;;1.17;;
8881;SDS011;4477;48.736;9.176;2022-07-01T13:18:08;1.67;;;1.10;;
8881;SDS011;4477;48.736;9.176;2022-07-01T13:20:35;1.37;;;1.20;;
8881;SDS011;4477;48.736;9.176;2022-07-01T13:23:03;1.63;;;1.13;;
8881;SDS011;4477;48.736;9.176;2022-07-01T13:25:30;4.47;;;1.20;;
8881;SDS011;4477;48.736;9.176;2022-07-01T13:27:57;1.73;;;1.23;;
8881;SDS011;4477;48.736;9.176;2022-07-01T13:30:24;1.17;;;1.07;;
8881;SDS011;4477;48.736;9.176;2022-07-01T13:32:51;1.60;;;1.40;;
8881;SDS011;4477;48.736;9.176;2022-07-01T13:35:20;3.07;;;1.37;;
8881;SDS011;4477;48.736;9.176;2022-07-01T13:37:48;5.40;;;1.10;;
8881;SDS011;4477;48.736;9.176;2022-07-01T13:40:15;2.87;;;1.80;;
8881;SDS011;4477;48.736;9.176;2022-07-01T13:42:42;2.77;;;1.23;;
8881;SDS011;4477;48.736;9.176;2022-07-01T13:45:09;2.63;;;1.10;;
8881;SDS011;4477;48.736;9.176;2022-07-01T13:47:38;0.77;;;0.77;;
8881;SDS011;4477;48.736;9.176;2022-07-01T13:50:06;1.53;;;1.00;;
8881;SDS011;4477;48.736;9.176;2022-07-01T13:52:34;1.77;;;1.10;;
8881;SDS011;4477;48.736;9.176;2022-07-01T13:55:03;1.37;;;1.10;;
8881;SDS011;4477;48.736;9.176;2022-07-01T13:57:31;2.70;;;1.20;;
8881;SDS011;4477;48.736;9.176;2022-07-01T13:59:58;1.53;;;1.13;;
8881;SDS011;4477;48.736;9.176;2022-07-01T14:02:25;1.47;;;1.03;;
8881;SDS011;4477;48.736;9.176;2022-07-01T14:04:52;1.00;;;0.97;;
8881;SDS011;4477;48.736;9.176;2022-07-01T14:07:19;1.90;;;1.00;;
8881;SDS011;4477;48.736;9.176;2022-07-01T14:09:47;1.40;;;0.90;;
8881;SDS011;4477;48.736;9.176;2022-07-01T14:12:14;1.53;;;0.90;;
8881;SDS011;4477;48.736;9.176;2022-07-01T14:14:41;4.47;;;1.30;;
8881;SDS011;4477;48.736;9.176;2022-07-01T14:17:09;1.50;;;1.10;;
8881;SDS011;4477;48.736;9.176;2022-07-01T14:19:36;2.80;;;0.90;;
8881;SDS011;4477;48.736;9.176;2022-07-01T14:22:03;1.50;;;0.90;;
8881;SDS011;4477;48.736;9.176;2022-07-01T14:24:30;1.47;;;1.17;;
8881;SDS011;4477;48.736;9.176;2022-07-01T14:26:58;1.17;;;1.07;;
8881;SDS011;4477;48.736;9.176;2022-07-01T14:29:25;1.15;;;0.90;;
8881;SDS011;4477;48.736;9.176;2022-07-01T14:31:52;1.55;;;0.80;;
8881;SDS011;4477;48.736;9.176;2022-07-01T14:34:19;0.90;;;0.70;;
8881;SDS011;4477;48.736;9.176;2022-07-01T14:36:47;2.35;;;1.08;;
8881;SDS011;4477;48.736;9.176;2022-07-01T14:39:14;0.70;;;0.70;;
8881;SDS011;4477;48.736;9.176;2022-07-01T14:41:41;1.67;;;1.45;;
8881;SDS011;4477;48.736;9.176;2022-07-01T14:44:09;1.40;;;0.85;;
8881;SDS011;4477;48.736;9.176;2022-07-01T14:46:36;1.77;;;0.70;;
8881;SDS011;4477;48.736;9.176;2022-07-01T14:49:03;1.45;;;0.73;;
8881;SDS011;4477;48.736;9.176;2022-07-01T14:51:30;4.45;;;0.98;;
8881;SDS011;4477;48.736;9.176;2022-07-01T14:53:57;0.80;;;0.70;;
8881;SDS011;4477;48.736;9.176;2022-07-01T14:56:24;1.10;;;0.75;;
8881;SDS011;4477;48.736;9.176;2022-07-01T14:58:51;1.52;;;0.65;;
8881;SDS011;4477;48.736;9.176;2022-07-01T15:01:20;0.80;;;0.70;;
8881;SDS011;4477;48.736;9.176;2022-07-01T15:03:46;1.17;;;0.70;;
8881;SDS011;4477;48.736;9.176;2022-07-01T15:06:13;1.17;;;0.70;;
8881;SDS011;4477;48.736;9.176;2022-07-01T15:08:41;2.85;;;0.65;;
8881;SDS011;4477;48.736;9.176;2022-07-01T15:11:08;2.55;;;0.65;;
8881;SDS011;4477;48.736;9.176;2022-07-01T15:13:34;0.90;;;0.65;;
8881;SDS011;4477;48.736;9.176;2022-07-01T15:16:02;2.95;;;0.65;;
8881;SDS011;4477;48.736;9.176;2022-07-01T15:18:31;1.17;;;0.80;;
8881;SDS011;4477;48.736;9.176;2022-07-01T15:20:58;3.38;;;0.60;;
8881;SDS011;4477;48.736;9.176;2022-07-01T15:23:25;3.03;;;0.60;;
8881;SDS011;4477;48.736;9.176;2022-07-01T15:25:53;0.73;;;0.60;;
8881;SDS011;4477;48.736;9.176;2022-07-01T15:28:20;1.83;;;0.80;;